Terminal Aerodrome Forecast
Issued by NWS

Home | Current Version | Previous Version | Text Only | Print | Product List | Glossary On
Versions: 1 2 3 4 5 6 7 8 9 10 11 12 13 14 15 16 17 18 19 20 21
000
FTUS43 KLSX 230500
TAFCPS
TAF
KCPS 230520Z 2306/2406 VRB03KT P6SM BKN100
     FM231300 16005KT P6SM BKN100
     FM231800 15008KT P6SM BKN080
     FM240000 12005KT P6SM BKN080=

USA.gov is the U.S. government's official web portal to all federal, state and local government web resources and services.